Time,TemperatureF,DewpointF,PressureIn,WindDirection,WindDirectionDegrees,WindSpeedMPH,WindSpeedGustMPH,Humidity,HourlyPrecipIn,Conditions,Clouds,dailyrainin,SoftwareType,DateUTC
2013-02-16 00:01:00,31.0,29.0,-100.00,East,95,0.0,1.0,92,-99.99,,,-99.99,,2013-02-16 08:01:00,
2013-02-16 00:11:00,31.0,29.0,-100.00,East,95,0.0,1.0,92,-99.99,,,-99.99,,2013-02-16 08:11:00,
2013-02-16 01:01:00,31.0,29.0,-100.00,ENE,70,0.0,1.0,92,-99.99,,,-99.99,,2013-02-16 09:01:00,
2013-02-16 01:11:00,31.0,29.0,-100.00,ENE,70,0.0,1.0,92,-99.99,,,-99.99,,2013-02-16 09:11:00,
2013-02-16 02:01:00,30.0,28.0,-100.00,SW,235,1.0,2.0,92,-99.99,,,-99.99,,2013-02-16 10:01:00,
2013-02-16 03:02:00,31.0,29.0,-100.00,NNE,20,1.0,2.0,92,-99.99,,,-99.99,,2013-02-16 11:02:00,
2013-02-16 03:11:00,31.0,29.0,-100.00,NNE,20,1.0,2.0,92,-99.99,,,-99.99,,2013-02-16 11:11:00,
2013-02-16 04:01:00,30.0,29.0,-100.00,South,175,0.0,1.0,96,-99.99,,,-99.99,,2013-02-16 12:01:00,
2013-02-16 05:01:00,28.0,27.0,-100.00,South,170,0.0,2.0,95,-99.99,,,-99.99,,2013-02-16 13:01:00,
2013-02-16 05:10:00,28.0,27.0,-100.00,East,100,0.0,1.0,95,-99.99,,,-99.99,,2013-02-16 13:10:00,
2013-02-16 05:11:00,28.0,27.0,-100.00,South,170,0.0,2.0,95,-99.99,,,-99.99,,2013-02-16 13:11:00,
2013-02-16 06:01:00,28.0,27.0,-100.00,East,100,0.0,1.0,95,-99.99,,,-99.99,,2013-02-16 14:01:00,
2013-02-16 07:01:00,28.0,26.0,-100.00,ENE,60,1.0,1.0,92,-99.99,,,-99.99,,2013-02-16 15:01:00,
2013-02-16 07:11:00,28.0,26.0,-100.00,ENE,60,1.0,1.0,92,-99.99,,,-99.99,,2013-02-16 15:11:00,
2013-02-16 08:01:00,28.0,27.0,-100.00,SW,215,0.0,2.0,95,-99.99,,,-99.99,,2013-02-16 16:01:00,
2013-02-16 08:10:00,30.0,28.0,-100.00,SSE,160,0.0,3.0,92,-99.99,,,-99.99,,2013-02-16 16:10:00,
2013-02-16 09:01:00,30.0,28.0,-100.00,SSE,160,0.0,3.0,92,-99.99,,,-99.99,,2013-02-16 17:01:00,
2013-02-16 10:02:00,31.0,29.0,-100.00,North,5,1.0,2.0,92,-99.99,,,-99.99,,2013-02-16 18:02:00,
2013-02-16 10:10:00,34.0,31.0,-100.00,NNW,345,1.0,2.0,88,-99.99,,,-99.99,,2013-02-16 18:10:00,
2013-02-16 11:00:00,37.0,33.0,-100.00,South,175,1.0,3.0,85,-99.99,,,-99.99,,2013-02-16 19:00:00,
2013-02-16 11:02:00,34.0,31.0,-100.00,NNW,345,1.0,2.0,88,-99.99,,,-99.99,,2013-02-16 19:02:00,
2013-02-16 12:10:00,44.0,34.0,-100.00,WSW,255,5.0,6.0,67,-99.99,,,-99.99,,2013-02-16 20:10:00,
2013-02-16 13:02:00,44.0,34.0,-100.00,WSW,255,5.0,6.0,67,-99.99,,,-99.99,,2013-02-16 21:02:00,
2013-02-16 13:20:00,52.0,37.0,-100.00,SSE,150,2.0,6.0,56,-99.99,,,-99.99,,2013-02-16 21:20:00,
2013-02-16 14:01:00,52.0,37.0,-100.00,SSE,150,2.0,6.0,56,-99.99,,,-99.99,,2013-02-16 22:01:00,
2013-02-16 14:10:00,55.0,33.0,-100.00,East,80,5.0,9.0,43,-99.99,,,-99.99,,2013-02-16 22:10:00,
2013-02-16 14:11:00,52.0,37.0,-100.00,SSE,150,2.0,6.0,56,-99.99,,,-99.99,,2013-02-16 22:11:00,
2013-02-16 15:02:00,55.0,33.0,-100.00,East,80,5.0,9.0,43,-99.99,,,-99.99,,2013-02-16 23:02:00,
2013-02-16 16:02:00,56.0,25.0,-100.00,East,100,6.0,14.0,29,-99.99,,,-99.99,,2013-02-17 00:02:00,
2013-02-16 16:10:00,54.0,24.0,-100.00,ESE,120,9.0,13.0,30,-99.99,,,-99.99,,2013-02-17 00:10:00,
2013-02-16 16:12:00,56.0,25.0,-100.00,East,100,6.0,14.0,29,-99.99,,,-99.99,,2013-02-17 00:12:00,
2013-02-16 17:01:00,54.0,24.0,-100.00,ESE,120,9.0,13.0,30,-99.99,,,-99.99,,2013-02-17 01:01:00,
2013-02-16 18:01:00,47.0,33.0,-100.00,ESE,115,9.0,22.0,58,-99.99,,,-99.99,,2013-02-17 02:01:00,
2013-02-16 18:11:00,47.0,33.0,-100.00,ESE,115,9.0,22.0,58,-99.99,,,-99.99,,2013-02-17 02:11:00,
2013-02-16 19:01:00,42.0,35.0,-100.00,ESE,115,5.0,7.0,76,-99.99,,,-99.99,,2013-02-17 03:01:00,
2013-02-16 20:01:00,42.0,35.0,-100.00,SE,145,3.0,10.0,76,-99.99,,,-99.99,,2013-02-17 04:01:00,
2013-02-16 20:11:00,42.0,35.0,-100.00,SE,145,3.0,10.0,76,-99.99,,,-99.99,,2013-02-17 04:11:00,
2013-02-16 21:01:00,40.0,35.0,-100.00,South,170,2.0,9.0,82,-99.99,,,-99.99,,2013-02-17 05:01:00,
2013-02-16 22:02:00,39.0,35.0,-100.00,ESE,115,6.0,12.0,85,-99.99,,,-99.99,,2013-02-17 06:02:00,
2013-02-16 22:10:00,39.0,33.0,-100.00,SE,125,2.0,9.0,78,-99.99,,,-99.99,,2013-02-17 06:10:00,
2013-02-16 22:11:00,39.0,35.0,-100.00,ESE,115,6.0,12.0,85,-99.99,,,-99.99,,2013-02-17 06:11:00,
2013-02-16 23:01:00,39.0,33.0,-100.00,SE,125,2.0,9.0,78,-99.99,,,-99.99,,2013-02-17 07:01:00,